Time;durP1;ratioP1;P1;durP2;ratioP2;P2;SDS_P1;SDS_P2;PMS_P1;PMS_P2;Temp;Humidity;BMP_temperature;BMP_pressure;BME280_temperature;BME280_humidity;BME280_pressure;Samples;Min_cycle;Max_cycle;Signal;HPM_P1;HPM_P2
2022/04/18 00:00:41;;;;;;;2.53;2.33;;;18.70;79.00;;;;;;4944605;28;96122;-56
2022/04/18 00:03:11;;;;;;;2.95;2.00;;;18.70;79.00;;;;;;4933182;28;96404;-55
2022/04/18 00:05:41;;;;;;;2.58;2.08;;;18.70;79.00;;;;;;4945204;28;95392;-57
2022/04/18 00:08:12;;;;;;;;;;;18.70;79.00;;;;;;4944222;28;95569;-58
2022/04/18 00:10:44;;;;;;;1.90;1.65;;;18.70;79.10;;;;;;4940070;28;96801;-55
2022/04/18 00:13:15;;;;;;;1.75;1.60;;;18.70;79.10;;;;;;4932432;28;95698;-55
2022/04/18 00:15:47;;;;;;;1.77;1.63;;;18.70;79.30;;;;;;4930431;28;95902;-56
2022/04/18 00:18:18;;;;;;;2.35;1.80;;;18.70;79.10;;;;;;4937119;28;95734;-57
2022/04/18 00:20:48;;;;;;;1.83;1.42;;;18.60;79.10;;;;;;4936628;28;95669;-57
2022/04/18 00:23:19;;;;;;;2.13;1.77;;;18.60;79.10;;;;;;4942375;28;98187;-55
2022/04/18 00:25:50;;;;;;;1.92;1.73;;;18.60;79.20;;;;;;4935578;28;97785;-56
2022/04/18 00:28:24;;;;;;;1.70;1.60;;;18.60;79.10;;;;;;4934778;28;95758;-57
2022/04/18 00:30:54;;;;;;;2.60;2.10;;;18.60;79.10;;;;;;4935525;28;95426;-55
2022/04/18 00:33:26;;;;;;;1.80;1.42;;;18.60;79.20;;;;;;4955907;28;95866;-57
2022/04/18 00:35:57;;;;;;;1.60;1.50;;;18.60;79.30;;;;;;4949966;28;95929;-57
2022/04/18 00:38:28;;;;;;;2.42;2.10;;;18.60;79.20;;;;;;4950407;28;95986;-56
2022/04/18 00:40:59;;;;;;;;;;;18.60;79.20;;;;;;4958820;28;95392;-56
2022/04/18 00:43:45;;;;;;;1.67;1.58;;;18.60;79.20;;;;;;4966363;28;96252;-55
2022/04/18 00:46:20;;;;;;;1.80;1.63;;;18.60;79.20;;;;;;4946976;28;97170;-59
2022/04/18 00:48:50;;;;;;;2.90;1.85;;;18.60;79.20;;;;;;4933376;28;95252;-58
2022/04/18 00:51:27;;;;;;;2.25;2.05;;;18.60;79.20;;;;;;4943907;28;95988;-58
2022/04/18 00:53:58;;;;;;;1.70;1.50;;;18.60;79.20;;;;;;4934960;28;95931;-58
2022/04/18 00:56:28;;;;;;;3.50;1.63;;;18.60;79.20;;;;;;4942358;28;96096;-58
2022/04/18 00:58:59;;;;;;;2.22;1.73;;;18.60;79.10;;;;;;4942557;28;95831;-54
2022/04/18 01:01:30;;;;;;;2.63;1.92;;;18.60;79.20;;;;;;4943912;28;95400;-57
2022/04/18 01:04:01;;;;;;;2.15;1.80;;;18.60;79.20;;;;;;4955627;28;96137;-60
2022/04/18 01:06:33;;;;;;;1.53;1.43;;;18.60;79.20;;;;;;4960888;28;95825;-56
2022/04/18 01:09:05;;;;;;;2.25;1.83;;;18.60;79.20;;;;;;4956995;28;95675;-58
2022/04/18 01:11:36;;;;;;;2.95;1.80;;;18.60;79.20;;;;;;4964446;28;95590;-58
2022/04/18 01:14:21;;;;;;;1.77;1.67;;;18.60;79.20;;;;;;4955943;28;96754;-58
2022/04/18 01:16:52;;;;;;;3.03;1.75;;;18.60;79.30;;;;;;4940422;28;96057;-58
2022/04/18 01:19:53;;;;;;;2.03;1.83;;;18.60;79.30;;;;;;4934821;28;95339;-56
2022/04/18 01:22:53;;;;;;;2.00;1.80;;;18.60;79.30;;;;;;4949770;28;96108;-58
2022/04/18 01:28:59;;;;;;;2.78;1.90;;;18.60;79.30;;;;;;4936263;28;95407;-59
2022/04/18 01:31:36;;;;;;;1.95;1.73;;;18.60;79.30;;;;;;4938041;28;95777;-58
2022/04/18 01:34:08;;;;;;;1.77;1.67;;;18.60;79.30;;;;;;4948162;28;95685;-58
2022/04/18 01:36:39;;;;;;;2.17;1.60;;;18.60;79.30;;;;;;4939391;28;95922;-58
2022/04/18 01:39:12;;;;;;;3.47;1.98;;;18.60;79.30;;;;;;4928973;28;95974;-58
2022/04/18 01:41:43;;;;;;;1.45;1.35;;;18.60;79.30;;;;;;4934286;28;95978;-59
2022/04/18 01:44:14;;;;;;;2.15;1.95;;;18.50;79.30;;;;;;4927586;28;95444;-58
2022/04/18 01:46:44;;;;;;;;;;;18.50;79.40;;;;;;4942535;28;98141;-55
2022/04/18 01:49:18;;;;;;;2.80;2.08;;;18.60;79.30;;;;;;4977591;28;97219;-59
2022/04/18 01:51:49;;;;;;;2.00;1.45;;;18.60;79.30;;;;;;4975755;28;95950;-58
2022/04/18 01:54:20;;;;;;;;;;;18.50;79.30;;;;;;4964687;28;95699;-55
2022/04/18 01:56:50;;;;;;;1.95;1.73;;;18.50;79.30;;;;;;4972700;28;98619;-58
2022/04/18 01:59:20;;;;;;;2.15;1.88;;;18.60;79.40;;;;;;4947909;28;96022;-60
2022/04/18 02:01:50;;;;;;;1.67;1.58;;;18.60;79.40;;;;;;4945544;28;95907;-62
2022/04/18 02:04:20;;;;;;;2.00;1.80;;;18.50;79.30;;;;;;4928241;28;95679;-57
2022/04/18 02:06:52;;;;;;;2.67;1.85;;;18.60;79.40;;;;;;4954370;28;98575;-59
2022/04/18 02:09:24;;;;;;;2.63;1.70;;;18.60;79.40;;;;;;4941840;28;95275;-56
2022/04/18 02:11:55;;;;;;;1.70;1.55;;;18.50;79.40;;;;;;4944145;28;96006;-58
2022/04/18 02:14:34;;;;;;;2.65;1.83;;;18.50;79.40;;;;;;4944886;28;95917;-58
2022/04/18 02:17:05;;;;;;;2.05;1.90;;;18.50;79.40;;;;;;4940941;28;95851;-58
2022/04/18 02:19:36;;;;;;;;;;;18.50;79.30;;;;;;4949350;28;96156;-57
2022/04/18 02:22:09;;;;;;;2.45;1.58;;;18.50;79.40;;;;;;4964832;28;95995;-59
2022/04/18 02:24:40;;;;;;;1.52;1.42;;;18.50;79.40;;;;;;4967120;28;96026;-58
2022/04/18 02:27:12;;;;;;;1.70;1.60;;;18.50;79.40;;;;;;4974642;28;96333;-58
2022/04/18 02:29:43;;;;;;;;;;;18.50;79.40;;;;;;4963637;28;95737;-58
2022/04/18 02:35:06;;;;;;;2.45;1.50;;;18.50;79.30;;;;;;4964357;28;95646;-59
2022/04/18 02:37:37;;;;;;;;;;;18.60;79.40;;;;;;4954597;28;96223;-58
2022/04/18 02:40:09;;;;;;;2.10;1.60;;;18.60;79.40;;;;;;4970722;28;99753;-58
2022/04/18 02:42:45;;;;;;;1.85;1.60;;;18.60;79.30;;;;;;4953459;28;95472;-58
2022/04/18 02:45:19;;;;;;;2.28;1.52;;;18.50;79.40;;;;;;4954856;28;95645;-57
2022/04/18 02:48:10;;;;;;;1.70;1.60;;;18.50;79.40;;;;;;4959583;28;97048;-59
2022/04/18 02:50:44;;;;;;;2.40;2.20;;;18.50;79.40;;;;;;4949474;28;95794;-57
2022/04/18 02:53:13;;;;;;;2.28;1.70;;;18.50;79.40;;;;;;4958186;28;95843;-58
2022/04/18 02:55:51;;;;;;;2.72;1.80;;;18.50;79.40;;;;;;4959920;28;95917;-59
2022/04/18 02:58:22;;;;;;;2.45;1.90;;;18.50;79.50;;;;;;4959209;28;98068;-58
2022/04/18 03:00:53;;;;;;;1.50;1.40;;;18.50;79.40;;;;;;4956079;28;98019;-57
2022/04/18 03:03:23;;;;;;;1.60;1.50;;;18.50;79.40;;;;;;4961289;28;95726;-58
2022/04/18 03:05:56;;;;;;;1.52;1.42;;;18.50;79.40;;;;;;4965032;28;95924;-58
2022/04/18 03:08:27;;;;;;;;;;;18.50;79.50;;;;;;4947863;28;96678;-58
2022/04/18 03:11:03;;;;;;;1.80;1.35;;;18.50;79.50;;;;;;4950783;28;95737;-58
2022/04/18 03:13:44;;;;;;;3.17;1.60;;;18.50;79.50;;;;;;4975243;28;96169;-58
2022/04/18 03:16:27;;;;;;;2.53;1.85;;;18.50;79.50;;;;;;4960649;28;95590;-58
2022/04/18 03:18:58;;;;;;;2.10;1.48;;;18.50;79.60;;;;;;4991363;28;98555;-58
2022/04/18 03:21:30;;;;;;;1.95;1.60;;;18.50;79.70;;;;;;4964360;28;96252;-58
2022/04/18 03:24:05;;;;;;;1.92;1.65;;;18.50;79.70;;;;;;4964856;28;96211;-58
2022/04/18 03:26:56;;;;;;;2.47;1.83;;;18.50;79.80;;;;;;4953008;28;95650;-57
2022/04/18 03:29:32;;;;;;;1.20;1.10;;;18.50;79.60;;;;;;4959975;28;98021;-57
2022/04/18 03:32:04;;;;;;;1.50;1.40;;;18.50;79.70;;;;;;4986505;28;97862;-55
2022/04/18 03:34:36;;;;;;;1.30;1.20;;;18.50;79.70;;;;;;4949169;28;95417;-59
2022/04/18 03:39:56;;;;;;;1.30;1.20;;;18.50;79.70;;;;;;4954492;28;96314;-58
2022/04/18 03:42:31;;;;;;;1.80;1.40;;;18.50;79.70;;;;;;4954972;28;96161;-57
2022/04/18 03:45:09;;;;;;;1.85;1.75;;;18.50;79.70;;;;;;4948899;28;95715;-59
2022/04/18 03:47:40;;;;;;;;;;;18.50;79.70;;;;;;4971423;28;98744;-57
2022/04/18 03:50:10;;;;;;;1.70;1.40;;;18.40;79.70;;;;;;4963575;28;97892;-59
2022/04/18 03:52:44;;;;;;;2.50;1.67;;;18.40;79.70;;;;;;4964229;28;95407;-59
2022/04/18 03:55:34;;;;;;;1.80;1.65;;;18.50;79.70;;;;;;4954394;28;95672;-59
2022/04/18 03:58:18;;;;;;;2.13;1.92;;;18.50;79.70;;;;;;4961430;28;95762;-56
2022/04/18 04:00:49;;;;;;;1.70;1.60;;;18.40;79.60;;;;;;4957137;28;98021;-57
2022/04/18 04:03:21;;;;;;;2.08;1.75;;;18.50;79.70;;;;;;4965287;28;96076;-61
2022/04/18 04:05:55;;;;;;;1.60;1.50;;;18.50;79.70;;;;;;4978122;28;95295;-57
2022/04/18 04:08:28;;;;;;;1.90;1.63;;;18.50;79.70;;;;;;4955166;28;95727;-58
2022/04/18 04:11:02;;;;;;;2.80;1.70;;;18.40;79.60;;;;;;4960723;28;96173;-57
2022/04/18 04:13:35;;;;;;;1.60;1.50;;;18.40;79.70;;;;;;4953642;28;97637;-59
2022/04/18 04:16:18;;;;;;;1.50;1.40;;;18.50;79.60;;;;;;4965089;28;95950;-58
2022/04/18 04:18:52;;;;;;;2.20;2.00;;;18.50;79.60;;;;;;4971229;28;95437;-56
2022/04/18 04:21:23;;;;;;;1.80;1.52;;;18.50;79.70;;;;;;4963725;28;98072;-59
2022/04/18 04:23:57;;;;;;;1.92;1.83;;;18.40;79.60;;;;;;4963751;28;97270;-59
2022/04/18 04:26:31;;;;;;;1.70;1.60;;;18.50;79.70;;;;;;4954239;28;95481;-57
2022/04/18 04:29:02;;;;;;;1.85;1.45;;;18.50;79.80;;;;;;4958249;28;95681;-58
2022/04/18 04:31:38;;;;;;;1.42;1.33;;;18.50;79.70;;;;;;4933170;28;96100;-58
2022/04/18 04:34:10;;;;;;;;;;;18.50;79.70;;;;;;4948226;28;97597;-58
2022/04/18 04:37:16;;;;;;;1.73;1.50;;;18.50;79.70;;;;;;4930010;28;95671;-56
2022/04/18 04:39:51;;;;;;;1.80;1.40;;;18.50;79.60;;;;;;4939526;28;96111;-59
2022/04/18 04:42:25;;;;;;;1.30;1.20;;;18.50;79.60;;;;;;4938667;28;96425;-58
2022/04/18 04:44:57;;;;;;;1.30;1.20;;;18.50;79.70;;;;;;4937593;28;96621;-58
2022/04/18 04:47:49;;;;;;;2.63;1.70;;;18.50;79.60;;;;;;4958942;28;95851;-57
2022/04/18 04:50:20;;;;;;;;;;;18.50;79.60;;;;;;4963477;28;95562;-56
2022/04/18 04:52:58;;;;;;;1.45;1.35;;;18.50;79.60;;;;;;4992510;28;96033;-60
2022/04/18 04:55:29;;;;;;;1.80;1.70;;;18.50;79.70;;;;;;4964744;28;97734;-58
2022/04/18 04:58:00;;;;;;;1.35;1.25;;;18.50;79.70;;;;;;4963397;28;95621;-58
2022/04/18 05:00:32;;;;;;;1.52;1.42;;;18.50;79.70;;;;;;4951416;28;98409;-57
2022/04/18 05:03:26;;;;;;;1.85;1.70;;;18.50;79.70;;;;;;4933529;28;96288;-55
2022/04/18 05:05:57;;;;;;;1.50;1.40;;;18.50;79.70;;;;;;4947063;28;95455;-56
2022/04/18 05:08:44;;;;;;;1.40;1.30;;;18.50;79.70;;;;;;4945951;28;95802;-57
2022/04/18 05:11:16;;;;;;;2.20;1.58;;;18.50;79.70;;;;;;4949366;28;96344;-61
2022/04/18 05:13:49;;;;;;;1.55;1.35;;;18.50;79.80;;;;;;4936521;28;95878;-57
2022/04/18 05:16:35;;;;;;;1.50;1.40;;;18.50;79.70;;;;;;4926468;28;95822;-59
2022/04/18 05:19:24;;;;;;;1.60;1.50;;;18.50;79.80;;;;;;4929327;28;96059;-58
2022/04/18 05:22:07;;;;;;;1.50;1.40;;;18.50;79.80;;;;;;4933449;28;95298;-58
2022/04/18 05:24:41;;;;;;;1.27;1.17;;;18.50;79.70;;;;;;4945118;28;97040;-58
2022/04/18 05:27:15;;;;;;;3.97;1.77;;;18.40;79.70;;;;;;4924224;28;96319;-58
2022/04/18 05:29:48;;;;;;;1.30;1.15;;;18.50;79.80;;;;;;4957017;28;95773;-58
2022/04/18 05:32:19;;;;;;;1.40;1.30;;;18.50;79.80;;;;;;4949883;28;96551;-57
2022/04/18 05:34:58;;;;;;;1.45;1.13;;;18.50;79.80;;;;;;4934568;28;96313;-57
2022/04/18 05:37:29;;;;;;;1.95;1.27;;;18.50;79.80;;;;;;4943699;28;95807;-57
2022/04/18 05:40:23;;;;;;;1.70;1.60;;;18.50;79.80;;;;;;4942301;28;96076;-56
2022/04/18 05:42:56;;;;;;;1.67;1.52;;;18.50;79.80;;;;;;4943327;28;96388;-58
2022/04/18 05:45:29;;;;;;;2.05;1.35;;;18.50;79.80;;;;;;4940125;28;96043;-58
2022/04/18 05:48:08;;;;;;;2.45;1.65;;;18.50;79.80;;;;;;4950742;28;104402;-58
2022/04/18 05:50:47;;;;;;;2.95;1.80;;;18.50;79.80;;;;;;4946733;28;96167;-59
2022/04/18 05:53:27;;;;;;;2.90;2.00;;;18.50;79.80;;;;;;4934586;28;95618;-55
2022/04/18 05:56:06;;;;;;;1.33;1.23;;;18.50;79.80;;;;;;4937099;28;96328;-58
2022/04/18 05:58:55;;;;;;;2.22;1.52;;;18.50;79.80;;;;;;4936012;28;97268;-55
2022/04/18 06:01:49;;;;;;;1.67;1.58;;;18.50;79.90;;;;;;4932424;28;95824;-57
2022/04/18 06:04:40;;;;;;;1.60;1.45;;;18.40;79.90;;;;;;4938426;28;95604;-58
2022/04/18 06:07:34;;;;;;;1.90;1.50;;;18.50;80.00;;;;;;4932913;28;96509;-56
2022/04/18 06:10:41;;;;;;;1.48;1.38;;;18.50;80.00;;;;;;4921697;28;95700;-59
2022/04/18 06:13:32;;;;;;;3.13;1.45;;;18.40;79.90;;;;;;4933955;28;95770;-57
2022/04/18 06:16:05;;;;;;;2.33;1.77;;;18.40;79.90;;;;;;4931009;28;95495;-58
2022/04/18 06:18:36;;;;;;;1.70;1.33;;;18.50;80.00;;;;;;4953759;28;98210;-57
2022/04/18 06:21:11;;;;;;;1.30;1.20;;;18.50;80.00;;;;;;4953800;28;96008;-57
2022/04/18 06:23:44;;;;;;;2.45;1.70;;;18.50;80.00;;;;;;4961125;28;95784;-56
2022/04/18 06:26:34;;;;;;;1.67;1.58;;;18.50;80.00;;;;;;4960648;28;98005;-56
2022/04/18 06:29:07;;;;;;;1.75;1.20;;;18.40;80.00;;;;;;4947843;28;95993;-54
2022/04/18 06:31:44;;;;;;;1.83;1.42;;;18.40;80.00;;;;;;4953360;28;95481;-57
2022/04/18 06:34:17;;;;;;;1.58;1.25;;;18.40;80.00;;;;;;4960526;28;98064;-58
2022/04/18 06:36:49;;;;;;;1.33;1.17;;;18.40;80.00;;;;;;4946936;28;95703;-55
2022/04/18 06:39:29;;;;;;;1.95;1.48;;;18.40;80.00;;;;;;4960173;28;97997;-58
2022/04/18 06:42:12;;;;;;;1.67;1.08;;;18.40;80.00;;;;;;4951862;28;95978;-57
2022/04/18 06:44:54;;;;;;;1.40;1.30;;;18.40;80.10;;;;;;4946037;28;95881;-58
2022/04/18 06:47:25;;;;;;;1.60;1.50;;;18.40;80.10;;;;;;4965570;28;97653;-58
2022/04/18 06:50:11;;;;;;;2.00;1.80;;;18.40;80.10;;;;;;4952820;28;95796;-55
2022/04/18 06:52:56;;;;;;;1.50;1.40;;;18.40;80.10;;;;;;4948435;28;95531;-58
2022/04/18 06:59:03;;;;;;;1.50;1.40;;;18.40;80.20;;;;;;4948202;28;95788;-58
2022/04/18 07:01:35;;;;;;;2.10;1.90;;;18.40;80.20;;;;;;4943608;28;96023;-56
2022/04/18 07:04:07;;;;;;;1.35;1.25;;;18.40;80.20;;;;;;4971314;28;95647;-59
2022/04/18 07:06:37;;;;;;;;;;;18.40;80.20;;;;;;4961698;28;95345;-56
2022/04/18 07:09:09;;;;;;;1.02;1.02;;;18.40;80.20;;;;;;4966264;28;95711;-57
2022/04/18 07:12:01;;;;;;;1.45;1.35;;;18.40;80.10;;;;;;4962549;28;98612;-56
2022/04/18 07:14:33;;;;;;;1.95;1.60;;;18.40;80.20;;;;;;4958671;28;97746;-58
2022/04/18 07:17:03;;;;;;;;;;;18.40;80.20;;;;;;4934478;28;95342;-57
2022/04/18 07:19:35;;;;;;;1.75;1.65;;;18.30;80.20;;;;;;4948756;28;95401;-57
2022/04/18 07:22:13;;;;;;;1.30;1.20;;;18.40;80.20;;;;;;4947899;28;98106;-56
2022/04/18 07:24:45;;;;;;;1.88;1.35;;;18.30;80.20;;;;;;4932526;28;97287;-57
2022/04/18 07:27:18;;;;;;;1.50;1.40;;;18.40;80.20;;;;;;4941908;28;95662;-56
2022/04/18 07:29:55;;;;;;;1.48;1.30;;;18.40;80.20;;;;;;4935152;28;95491;-57
2022/04/18 07:32:27;;;;;;;1.38;1.27;;;18.40;80.30;;;;;;4952989;28;96477;-58
2022/04/18 07:35:05;;;;;;;1.50;1.40;;;18.40;80.20;;;;;;4944090;28;98186;-57
2022/04/18 07:40:43;;;;;;;1.60;1.50;;;18.30;80.20;;;;;;4957190;28;96026;-57
2022/04/18 07:43:15;;;;;;;2.33;1.60;;;18.40;80.20;;;;;;4951605;28;96283;-57
2022/04/18 07:45:46;;;;;;;1.33;1.20;;;18.30;80.20;;;;;;4945549;28;97398;-58
2022/04/18 07:48:18;;;;;;;1.58;1.48;;;18.40;80.20;;;;;;4960490;28;95819;-58
2022/04/18 07:53:42;;;;;;;1.02;1.02;;;18.30;80.20;;;;;;4955499;28;97941;-58
2022/04/18 07:56:12;;;;;;;1.98;1.67;;;18.40;80.20;;;;;;4966934;28;96110;-57
2022/04/18 07:58:42;;;;;;;1.40;1.20;;;18.30;80.20;;;;;;4961692;28;95645;-60
2022/04/18 08:01:20;;;;;;;1.63;1.30;;;18.30;80.20;;;;;;4964402;28;95674;-56
2022/04/18 08:03:51;;;;;;;1.88;1.55;;;18.30;80.30;;;;;;4963756;28;96097;-56
2022/04/18 08:06:23;;;;;;;1.30;1.17;;;18.30;80.20;;;;;;4947798;28;97457;-57
2022/04/18 08:09:04;;;;;;;1.65;1.25;;;18.30;80.20;;;;;;4950186;28;95700;-57
2022/04/18 08:11:38;;;;;;;1.65;1.55;;;18.30;80.20;;;;;;4975634;28;96144;-58
2022/04/18 08:14:10;;;;;;;1.88;1.20;;;18.30;80.20;;;;;;4966560;28;96918;-56
2022/04/18 08:16:54;;;;;;;1.65;1.55;;;18.30;80.30;;;;;;4952623;28;97805;-57
2022/04/18 08:19:39;;;;;;;2.03;1.77;;;18.30;80.30;;;;;;4951514;28;95809;-55
2022/04/18 08:22:10;;;;;;;1.58;1.40;;;18.30;80.30;;;;;;4950940;28;95765;-58
2022/04/18 08:25:00;;;;;;;1.38;1.20;;;18.30;80.30;;;;;;4943701;28;98172;-58
2022/04/18 08:27:48;;;;;;;1.98;1.63;;;18.30;80.40;;;;;;4951091;28;96008;-58
2022/04/18 08:30:27;;;;;;;1.75;1.65;;;18.30;80.30;;;;;;4961651;28;95733;-58
2022/04/18 08:33:08;;;;;;;1.50;1.40;;;18.30;80.30;;;;;;4958028;28;96097;-57
2022/04/18 08:35:40;;;;;;;2.58;1.65;;;18.20;80.20;;;;;;4960422;28;98363;-58
2022/04/18 08:38:12;;;;;;;1.70;1.60;;;18.20;80.30;;;;;;4944999;28;96269;-58
2022/04/18 08:41:15;;;;;;;3.17;1.42;;;18.20;80.30;;;;;;4945663;28;98419;-57
2022/04/18 08:43:46;;;;;;;2.22;1.60;;;18.20;80.30;;;;;;4958808;28;96291;-57
2022/04/18 08:46:19;;;;;;;1.52;1.30;;;18.20;80.30;;;;;;4948824;28;95914;-57
2022/04/18 08:54:29;;;;;;;2.47;1.60;;;18.20;80.30;;;;;;4960268;28;95525;-55
2022/04/18 08:56:59;;;;;;;1.85;1.65;;;18.20;80.30;;;;;;4952355;28;95981;-56
2022/04/18 08:59:31;;;;;;;1.38;1.20;;;18.20;80.30;;;;;;4949561;28;96236;-54
2022/04/18 09:02:03;;;;;;;1.63;1.52;;;18.20;80.30;;;;;;4950897;28;95885;-59
2022/04/18 09:04:56;;;;;;;1.93;1.77;;;18.20;80.30;;;;;;4962686;28;95903;-56
2022/04/18 09:07:28;;;;;;;1.23;1.13;;;18.20;80.40;;;;;;4960919;28;96400;-57
2022/04/18 09:09:59;;;;;;;1.90;1.75;;;18.20;80.40;;;;;;4969249;28;97608;-54
2022/04/18 09:12:31;;;;;;;2.28;2.08;;;18.20;80.40;;;;;;4966798;28;95572;-54
2022/04/18 09:15:15;;;;;;;1.52;1.33;;;18.20;80.40;;;;;;4946175;28;95479;-59
2022/04/18 09:18:19;;;;;;;1.48;1.30;;;18.20;80.30;;;;;;4962106;28;96120;-55
2022/04/18 09:20:59;;;;;;;1.98;1.52;;;18.20;80.30;;;;;;4961828;28;95643;-52
2022/04/18 09:23:35;;;;;;;1.50;1.40;;;18.20;80.40;;;;;;4954169;28;95427;-54
2022/04/18 09:26:33;;;;;;;1.73;1.63;;;18.20;80.20;;;;;;4949778;28;95907;-53
2022/04/18 09:29:07;;;;;;;2.20;1.98;;;18.30;80.20;;;;;;4949358;28;95998;-54
2022/04/18 09:31:41;;;;;;;3.88;2.08;;;18.20;80.20;;;;;;4952638;28;95807;-48
2022/04/18 09:34:25;;;;;;;5.20;2.35;;;18.30;80.40;;;;;;4977321;28;96110;-55
2022/04/18 09:37:17;;;;;;;2.75;2.08;;;18.30;80.50;;;;;;4966937;28;95920;-53
2022/04/18 09:39:55;;;;;;;2.30;2.10;;;18.30;80.40;;;;;;4958772;28;98139;-52
2022/04/18 09:42:28;;;;;;;2.42;2.10;;;18.30;80.50;;;;;;4958399;28;96005;-51
2022/04/18 09:45:12;;;;;;;2.55;2.05;;;18.40;80.60;;;;;;4959943;28;95824;-51
2022/04/18 09:47:53;;;;;;;3.83;2.28;;;18.30;80.50;;;;;;4962862;28;98273;-53
2022/04/18 09:53:24;;;;;;;1.98;1.83;;;18.30;80.80;;;;;;4957899;28;96174;-54
2022/04/18 09:55:56;;;;;;;2.47;2.17;;;18.40;80.80;;;;;;4958785;28;95821;-53
2022/04/18 09:58:27;;;;;;;3.30;2.47;;;18.30;80.80;;;;;;4964119;28;95723;-54
2022/04/18 10:01:19;;;;;;;2.38;2.17;;;18.30;80.80;;;;;;4948237;28;96906;-51
2022/04/18 10:03:52;;;;;;;3.33;2.50;;;18.40;81.00;;;;;;4958825;28;95842;-52
2022/04/18 10:06:24;;;;;;;3.55;2.67;;;18.30;80.90;;;;;;4959195;28;95844;-53
2022/04/18 10:08:58;;;;;;;3.22;2.58;;;18.30;81.00;;;;;;4956287;28;95758;-50
2022/04/18 10:11:32;;;;;;;3.08;2.50;;;18.40;81.00;;;;;;4956585;28;95880;-51
2022/04/18 10:14:03;;;;;;;2.97;2.22;;;18.40;81.10;;;;;;4956075;28;95866;-52
2022/04/18 10:16:34;;;;;;;3.10;2.20;;;18.40;81.10;;;;;;4952373;28;95453;-51
2022/04/18 10:19:28;;;;;;;3.13;2.55;;;18.40;81.10;;;;;;4958129;28;95699;-52
2022/04/18 10:22:31;;;;;;;2.97;2.28;;;18.40;81.10;;;;;;4972714;28;96567;-49
2022/04/18 10:25:09;;;;;;;4.50;2.13;;;18.40;81.10;;;;;;4956744;28;95599;-51
2022/04/18 10:28:19;;;;;;;4.35;2.13;;;18.40;81.20;;;;;;4955817;28;95798;-55
2022/04/18 10:30:57;;;;;;;2.38;2.10;;;18.40;81.20;;;;;;4951232;28;95694;-50
2022/04/18 10:33:32;;;;;;;2.80;2.25;;;18.40;81.20;;;;;;4958760;28;98987;-54
2022/04/18 10:36:07;;;;;;;2.60;1.98;;;18.40;81.20;;;;;;4956153;28;96075;-55
2022/04/18 10:38:43;;;;;;;2.50;2.30;;;18.40;81.20;;;;;;4956209;28;96526;-54
2022/04/18 10:41:41;;;;;;;3.10;2.40;;;18.40;81.70;;;;;;4946025;28;100034;-56
2022/04/18 10:44:16;;;;;;;3.40;2.17;;;18.40;81.30;;;;;;4954957;28;96021;-52
2022/04/18 10:46:51;;;;;;;3.03;2.10;;;18.40;81.30;;;;;;4945686;28;95876;-52
2022/04/18 10:49:27;;;;;;;3.05;2.63;;;18.40;81.20;;;;;;4954042;28;96960;-49
2022/04/18 10:52:08;;;;;;;5.15;2.90;;;18.40;81.20;;;;;;4940576;28;96995;-56
2022/04/18 10:54:58;;;;;;;2.60;2.40;;;18.50;81.30;;;;;;4949656;28;96140;-55
2022/04/18 10:57:30;;;;;;;3.72;2.65;;;18.50;81.20;;;;;;4955047;28;96155;-54
2022/04/18 11:00:04;;;;;;;2.97;2.53;;;18.50;81.20;;;;;;4959101;28;95870;-53
2022/04/18 11:02:39;;;;;;;3.22;2.60;;;18.50;81.10;;;;;;4951530;28;95933;-54
2022/04/18 11:05:13;;;;;;;2.50;2.30;;;18.50;81.10;;;;;;4959160;28;95923;-52
2022/04/18 11:07:46;;;;;;;4.18;2.80;;;18.50;81.10;;;;;;4958593;28;96456;-52
2022/04/18 11:10:23;;;;;;;4.10;3.03;;;18.60;81.10;;;;;;4956111;28;95823;-54
2022/04/18 11:13:00;;;;;;;3.70;2.67;;;18.60;81.00;;;;;;4952989;28;95799;-56
2022/04/18 11:15:31;;;;;;;3.72;2.97;;;18.60;80.90;;;;;;4950876;28;96030;-54
2022/04/18 11:18:09;;;;;;;4.43;3.40;;;18.60;80.90;;;;;;4958684;28;96002;-50
2022/04/18 11:20:40;;;;;;;3.30;2.90;;;18.70;81.00;;;;;;4957726;28;96606;-53
2022/04/18 11:23:27;;;;;;;3.85;2.90;;;18.70;80.90;;;;;;4958120;28;95855;-56
2022/04/18 11:26:04;;;;;;;4.13;2.67;;;18.70;80.70;;;;;;4958469;28;96860;-55
2022/04/18 11:28:39;;;;;;;4.28;3.20;;;18.70;80.70;;;;;;4955106;28;96645;-56
2022/04/18 11:31:17;;;;;;;2.85;2.65;;;18.70;80.70;;;;;;4950239;28;95751;-53
2022/04/18 11:33:48;;;;;;;3.20;2.92;;;18.80;80.60;;;;;;4959617;28;95758;-53
2022/04/18 11:36:25;;;;;;;3.75;2.97;;;18.80;80.70;;;;;;4959410;28;96601;-54
2022/04/18 11:39:07;;;;;;;5.70;3.37;;;18.80;80.60;;;;;;4941659;28;96502;-55
2022/04/18 11:41:37;;;;;;;3.17;2.85;;;18.80;80.50;;;;;;4944375;28;96618;-55
2022/04/18 11:44:09;;;;;;;3.53;3.17;;;18.80;80.50;;;;;;4953712;28;95855;-54
2022/04/18 11:46:41;;;;;;;3.92;2.85;;;18.90;80.60;;;;;;4950022;28;96430;-50
2022/04/18 11:49:12;;;;;;;4.90;2.85;;;18.90;80.50;;;;;;4958354;28;95922;-60
2022/04/18 11:51:43;;;;;;;3.38;3.08;;;19.00;80.50;;;;;;4956643;28;96294;-54
2022/04/18 11:54:15;;;;;;;5.28;3.60;;;19.00;80.40;;;;;;4959679;28;96230;-57
2022/04/18 11:57:02;;;;;;;3.28;2.97;;;19.00;80.10;;;;;;4959898;28;96024;-56
2022/04/18 11:59:32;;;;;;;3.63;2.85;;;19.10;80.00;;;;;;4959818;28;95998;-59
2022/04/18 12:07:49;;;;;;;3.83;3.38;;;19.10;79.90;;;;;;4957944;28;96514;-56
2022/04/18 12:10:25;;;;;;;3.75;3.30;;;19.10;79.80;;;;;;4958143;28;96762;-58
2022/04/18 12:12:56;;;;;;;3.40;3.10;;;19.10;79.80;;;;;;4959053;28;95859;-56
2022/04/18 12:15:29;;;;;;;4.40;3.67;;;19.10;79.70;;;;;;4951804;28;96142;-57
2022/04/18 12:18:09;;;;;;;3.30;3.00;;;19.00;79.70;;;;;;4955176;28;96436;-54
2022/04/18 12:20:47;;;;;;;3.75;3.25;;;19.00;79.70;;;;;;4955154;28;95406;-54
2022/04/18 12:23:25;;;;;;;5.80;3.85;;;19.00;79.60;;;;;;4959874;28;96098;-57
2022/04/18 12:25:58;;;;;;;4.50;3.05;;;19.00;79.60;;;;;;4959848;28;95827;-56
2022/04/18 12:28:31;;;;;;;3.70;3.35;;;19.00;79.50;;;;;;4958303;28;98220;-56
2022/04/18 12:31:10;;;;;;;3.40;3.00;;;19.00;79.50;;;;;;4954722;28;95905;-57
2022/04/18 12:33:49;;;;;;;4.88;3.55;;;19.00;79.40;;;;;;4961114;28;95984;-58
2022/04/18 12:36:26;;;;;;;3.78;3.38;;;19.00;79.40;;;;;;4956853;28;96713;-57
2022/04/18 12:38:58;;;;;;;4.38;3.55;;;19.00;79.30;;;;;;4961924;28;95950;-56
2022/04/18 12:41:34;;;;;;;3.83;3.00;;;19.00;79.30;;;;;;4949616;28;96145;-57
2022/04/18 12:44:15;;;;;;;3.30;3.00;;;19.00;79.30;;;;;;4961061;28;96247;-57
2022/04/18 12:46:48;;;;;;;3.70;3.30;;;19.00;79.40;;;;;;4955628;28;95853;-59
2022/04/18 12:49:18;;;;;;;3.30;2.85;;;19.00;79.40;;;;;;4962378;28;99596;-59
2022/04/18 12:51:53;;;;;;;3.78;3.20;;;19.00;79.30;;;;;;4954536;28;96520;-54
2022/04/18 12:54:28;;;;;;;4.30;2.75;;;19.00;79.30;;;;;;4957346;28;95499;-60
2022/04/18 12:56:58;;;;;;;3.50;3.20;;;19.00;79.30;;;;;;4962134;28;96029;-57
2022/04/18 12:59:31;;;;;;;2.78;2.55;;;19.00;79.30;;;;;;4961450;28;97741;-58
2022/04/18 13:02:09;;;;;;;3.58;3.28;;;19.00;79.30;;;;;;4954780;28;95984;-57
2022/04/18 13:04:40;;;;;;;4.15;3.75;;;19.00;79.20;;;;;;4962484;28;95801;-58
2022/04/18 13:07:12;;;;;;;2.92;2.63;;;19.00;79.20;;;;;;4961920;28;95682;-58
2022/04/18 13:09:44;;;;;;;3.95;3.00;;;19.00;79.20;;;;;;4956254;28;96724;-56
2022/04/18 13:12:15;;;;;;;3.80;2.85;;;19.00;79.20;;;;;;4961636;28;95827;-57
2022/04/18 13:15:02;;;;;;;;;;;18.90;79.10;;;;;;4962845;28;96117;-57
2022/04/18 13:17:35;;;;;;;3.80;3.25;;;18.90;79.10;;;;;;4945297;28;98418;-56
2022/04/18 13:20:07;;;;;;;3.95;2.65;;;18.90;79.10;;;;;;4951037;28;95885;-57
2022/04/18 13:22:39;;;;;;;3.10;2.80;;;18.90;79.10;;;;;;4950069;28;95849;-58
2022/04/18 13:25:12;;;;;;;3.03;2.75;;;18.90;79.10;;;;;;4948278;28;95682;-55
2022/04/18 13:27:46;;;;;;;3.42;3.13;;;18.90;79.10;;;;;;4948870;28;96112;-58
2022/04/18 13:30:17;;;;;;;2.63;2.20;;;18.90;79.10;;;;;;4944016;28;95888;-57
2022/04/18 13:32:48;;;;;;;;;;;18.90;79.10;;;;;;4951910;28;95757;-56
2022/04/18 13:35:21;;;;;;;3.45;2.70;;;18.90;79.20;;;;;;4954481;28;96191;-55
2022/04/18 13:37:53;;;;;;;3.47;2.88;;;18.90;79.10;;;;;;4951924;28;96024;-57
2022/04/18 13:40:26;;;;;;;3.35;2.92;;;18.90;79.10;;;;;;4938097;28;98095;-57
2022/04/18 13:42:58;;;;;;;3.17;2.88;;;18.90;79.10;;;;;;4937033;28;96120;-56
2022/04/18 13:45:29;;;;;;;3.03;2.30;;;18.80;79.70;;;;;;4941996;28;95261;-56
2022/04/18 13:48:00;;;;;;;3.15;2.55;;;18.90;79.10;;;;;;4941643;28;95712;-59
2022/04/18 13:50:30;;;;;;;3.00;2.72;;;18.80;79.00;;;;;;4940742;28;95861;-58
2022/04/18 13:53:01;;;;;;;3.50;2.75;;;18.90;79.10;;;;;;4941857;28;96372;-58
2022/04/18 13:55:33;;;;;;;3.13;2.85;;;18.80;79.00;;;;;;4939611;28;96046;-57
2022/04/18 13:58:05;;;;;;;4.10;2.60;;;18.80;79.00;;;;;;4929359;28;95662;-57
2022/04/18 14:00:34;;;;;;;;;;;18.80;79.00;;;;;;4932239;28;95862;-56
2022/04/18 14:03:05;;;;;;;2.50;2.13;;;18.80;79.10;;;;;;4956532;28;95747;-55
2022/04/18 14:05:37;;;;;;;;;;;18.70;79.10;;;;;;4954628;28;95719;-57
2022/04/18 14:08:13;;;;;;;3.03;2.63;;;18.80;79.20;;;;;;4955606;28;95765;-58